createdAt,value
2017-08-16T00:00:10.875Z,53.3
2017-08-16T00:02:05.177Z,53.3
2017-08-16T00:04:05.880Z,53.3
2017-08-16T00:06:05.727Z,53.6
2017-08-16T00:08:05.441Z,53.3
2017-08-16T00:10:05.111Z,53.3
2017-08-16T00:12:10.603Z,53.2
2017-08-16T00:14:07.976Z,53.2
2017-08-16T00:16:05.284Z,53.2
2017-08-16T00:18:05.810Z,53.4
2017-08-16T00:20:05.549Z,53.4
2017-08-16T00:22:05.271Z,53.3
2017-08-16T00:24:10.964Z,53.1
2017-08-16T00:26:08.224Z,53.4
2017-08-16T00:28:08.149Z,53.4
2017-08-16T00:30:08.419Z,53.3
2017-08-16T00:32:10.192Z,53.1
2017-08-16T00:34:05.884Z,53.1
2017-08-16T00:36:05.612Z,52.9
2017-08-16T00:38:05.296Z,53
2017-08-16T00:40:08.515Z,53.2
2017-08-16T00:42:05.398Z,53
2017-08-16T00:44:05.100Z,53.1
2017-08-16T00:46:05.794Z,52.9
2017-08-16T00:48:05.897Z,52.8
2017-08-16T00:50:05.697Z,52.9
2017-08-16T00:52:07.942Z,52.8
2017-08-16T00:54:05.814Z,52.8
2017-08-16T00:56:05.504Z,52.7
2017-08-16T00:58:07.730Z,52.7
2017-08-16T01:00:10.585Z,52.8
2017-08-16T01:02:05.314Z,52.8
2017-08-16T01:04:08.582Z,52.7
2017-08-16T01:06:05.319Z,52.7
2017-08-16T01:08:05.100Z,52.7
2017-08-16T01:10:05.860Z,52.7
2017-08-16T01:12:08.246Z,52.6
2017-08-16T01:14:05.049Z,52.6
2017-08-16T01:16:05.478Z,52.6
2017-08-16T01:18:07.963Z,52.6
2017-08-16T01:20:08.268Z,52.6
2017-08-16T01:22:08.522Z,52.6
2017-08-16T01:24:05.373Z,52.6
2017-08-16T01:26:05.044Z,52.6
2017-08-16T01:28:08.279Z,52.6
2017-08-16T01:30:05.569Z,52.6
2017-08-16T01:32:05.472Z,52.6
2017-08-16T01:34:05.212Z,52.6
2017-08-16T01:36:08.123Z,52.6
2017-08-16T01:38:05.836Z,52.6
2017-08-16T01:40:05.051Z,52.6
2017-08-16T01:42:06.160Z,52.6
2017-08-16T01:44:10.905Z,52.6
2017-08-16T01:46:10.737Z,52.6
2017-08-16T01:48:05.750Z,52.6
2017-08-16T01:50:05.492Z,52.6
2017-08-16T01:52:05.248Z,52.6
2017-08-16T01:54:06.164Z,52.6
2017-08-16T01:56:11.020Z,52.6
2017-08-16T01:58:07.920Z,52.6
2017-08-16T02:00:05.759Z,52.6
2017-08-16T02:02:05.511Z,52.6
2017-08-16T02:04:05.421Z,52.6
2017-08-16T02:06:05.417Z,52.6
2017-08-16T02:08:05.109Z,52.6
2017-08-16T02:10:08.321Z,52.6
2017-08-16T02:12:05.156Z,52.6
2017-08-16T02:14:08.412Z,52.6
2017-08-16T02:16:05.101Z,52.6
2017-08-16T02:18:05.388Z,52.6
2017-08-16T02:20:05.099Z,52.6
2017-08-16T02:22:05.779Z,52.6
2017-08-16T02:24:05.806Z,52.6
2017-08-16T02:26:04.987Z,52.6
2017-08-16T02:28:08.277Z,52.3
2017-08-16T02:30:12.695Z,52.3
2017-08-16T02:32:11.123Z,52.6
2017-08-16T02:34:06.024Z,52.3
2017-08-16T02:36:06.049Z,52.3
2017-08-16T02:38:08.444Z,52.6
2017-08-16T02:40:05.149Z,52.6
2017-08-16T02:42:05.414Z,52.3
2017-08-16T02:44:05.654Z,52.6
2017-08-16T02:46:07.898Z,52.6
2017-08-16T02:48:05.278Z,52.3
2017-08-16T02:50:06.056Z,52.3
2017-08-16T02:52:05.939Z,52.6
2017-08-16T02:54:08.504Z,52.3
2017-08-16T02:56:05.194Z,52.3
2017-08-16T02:58:05.966Z,52.4
2017-08-16T03:00:13.380Z,52.3
2017-08-16T03:02:05.068Z,52.3
2017-08-16T03:04:05.777Z,52.3
2017-08-16T03:06:05.621Z,52.6
2017-08-16T03:08:08.009Z,52.3
2017-08-16T03:10:12.827Z,52.3
2017-08-16T03:12:05.700Z,52.3
2017-08-16T03:14:05.420Z,52.3
2017-08-16T03:16:05.106Z,52.3
2017-08-16T03:18:11.253Z,52.3
2017-08-16T03:20:05.949Z,52.3
2017-08-16T03:22:05.673Z,52.3
2017-08-16T03:24:06.151Z,52.3
2017-08-16T03:26:08.449Z,52.3
2017-08-16T03:28:05.155Z,52.3
2017-08-16T03:30:08.600Z,52.3
2017-08-16T03:32:05.910Z,52.3
2017-08-16T03:34:07.744Z,52.3
2017-08-16T03:36:05.547Z,52.3
2017-08-16T03:38:05.251Z,52.3
2017-08-16T03:40:06.142Z,52.3
2017-08-16T03:42:06.054Z,52.3
2017-08-16T03:44:08.294Z,52.3
2017-08-16T03:46:08.528Z,52.3
2017-08-16T03:48:05.267Z,52.3
2017-08-16T03:50:06.045Z,52.3
2017-08-16T03:52:05.783Z,52.3
2017-08-16T03:54:05.228Z,52.2
2017-08-16T03:56:08.867Z,52.1
2017-08-16T03:58:05.220Z,52.2
2017-08-16T04:00:06.051Z,52.2
2017-08-16T04:02:08.270Z,52
2017-08-16T04:04:05.490Z,52
2017-08-16T04:06:05.225Z,52.1
2017-08-16T04:08:05.929Z,52.1
2017-08-16T04:10:05.635Z,52.1
2017-08-16T04:12:05.463Z,52.1
2017-08-16T04:14:05.176Z,52
2017-08-16T04:16:05.431Z,52.1
2017-08-16T04:18:08.085Z,52
2017-08-16T04:20:15.900Z,52
2017-08-16T04:22:08.174Z,52
2017-08-16T04:24:06.049Z,52
2017-08-16T04:26:05.771Z,52
2017-08-16T04:28:05.515Z,51.9
2017-08-16T04:30:05.518Z,51.9
2017-08-16T04:32:10.309Z,51.9
2017-08-16T04:34:08.054Z,51.9
2017-08-16T04:36:05.923Z,51.9
2017-08-16T04:38:05.633Z,51.8
2017-08-16T04:40:05.386Z,51.8
2017-08-16T04:42:08.279Z,51.8
2017-08-16T04:44:05.963Z,51.8
2017-08-16T04:46:08.238Z,51.7
2017-08-16T04:48:05.526Z,51.8
2017-08-16T04:50:05.237Z,51.7
2017-08-16T04:52:05.991Z,51.7
2017-08-16T04:54:09.360Z,51.8
2017-08-16T04:56:05.667Z,51.7
2017-08-16T04:58:05.418Z,51.7
2017-08-16T05:00:05.453Z,51.7
2017-08-16T05:02:05.253Z,51.7
2017-08-16T05:04:05.975Z,51.7
2017-08-16T05:06:08.325Z,51.6
2017-08-16T05:08:08.094Z,51.6
2017-08-16T05:10:05.773Z,51.6
2017-08-16T05:12:10.134Z,51.6
2017-08-16T05:14:05.848Z,51.6
2017-08-16T05:16:08.566Z,51.5
2017-08-16T05:18:05.566Z,51.5
2017-08-16T05:20:08.309Z,51.4
2017-08-16T05:22:06.038Z,51.4
2017-08-16T05:24:05.794Z,51.4
2017-08-16T05:26:05.032Z,51.6
2017-08-16T05:28:05.810Z,51.7
2017-08-16T05:30:05.720Z,51.6
2017-08-16T05:32:05.477Z,51.6
2017-08-16T05:34:05.733Z,51.5
2017-08-16T05:36:05.464Z,51.7
2017-08-16T05:38:05.174Z,51.6
2017-08-16T05:40:10.986Z,51.6
2017-08-16T05:42:08.023Z,51.5
2017-08-16T05:44:05.803Z,51.5
2017-08-16T05:46:05.524Z,51.5
2017-08-16T05:48:05.791Z,51.6
2017-08-16T05:50:08.059Z,51.6
2017-08-16T05:52:05.741Z,51.6
2017-08-16T05:54:05.478Z,51.5
2017-08-16T05:56:05.272Z,51.6
2017-08-16T05:58:05.061Z,51.5
2017-08-16T06:00:08.499Z,51.6
2017-08-16T06:02:05.202Z,51.4
2017-08-16T06:04:06.076Z,51.6
2017-08-16T06:06:08.508Z,51.6
2017-08-16T06:08:05.268Z,51.6
2017-08-16T06:10:05.146Z,51.6
2017-08-16T06:12:06.130Z,51.5
2017-08-16T06:14:05.893Z,51.4
2017-08-16T06:16:05.221Z,51.4
2017-08-16T06:18:05.438Z,51.6
2017-08-16T06:20:07.984Z,51.5
2017-08-16T06:22:05.281Z,51.5
2017-08-16T06:24:06.214Z,51.5
2017-08-16T06:26:05.950Z,51.4
2017-08-16T06:28:15.786Z,51.6
2017-08-16T06:30:06.718Z,51.6
2017-08-16T06:32:05.391Z,51.6
2017-08-16T06:34:05.134Z,51.5
2017-08-16T06:36:10.534Z,51.7
2017-08-16T06:38:05.265Z,51.7
2017-08-16T06:40:05.958Z,51.6
2017-08-16T06:42:05.829Z,51.6
2017-08-16T06:44:05.605Z,51.5
2017-08-16T06:46:10.867Z,51.6
2017-08-16T06:48:08.335Z,51.6
2017-08-16T06:50:05.056Z,51.6
2017-08-16T06:52:08.342Z,51.8
2017-08-16T06:54:05.112Z,51.8
2017-08-16T06:56:05.816Z,51.8
2017-08-16T06:58:05.542Z,51.8
2017-08-16T07:00:05.437Z,51.6
2017-08-16T07:02:05.119Z,51.5
2017-08-16T07:04:05.811Z,51.6
2017-08-16T07:06:05.543Z,51.8
2017-08-16T07:08:05.398Z,51.7
2017-08-16T07:10:07.873Z,51.6
2017-08-16T07:12:05.941Z,51.6
2017-08-16T07:14:05.703Z,51.8
2017-08-16T07:16:08.003Z,51.6
2017-08-16T07:18:06.123Z,51.6
2017-08-16T07:20:05.846Z,51.6
2017-08-16T07:22:05.590Z,51.6
2017-08-16T07:24:05.557Z,51.8
2017-08-16T07:26:05.299Z,51.9
2017-08-16T07:28:05.528Z,51.7
2017-08-16T07:30:07.992Z,51.6
2017-08-16T07:32:05.719Z,51.6
2017-08-16T07:34:05.495Z,51.6
2017-08-16T07:36:05.820Z,51.7
2017-08-16T07:38:05.547Z,51.7
2017-08-16T07:40:05.757Z,51.7
2017-08-16T07:42:08.145Z,51.6
2017-08-16T07:44:06.092Z,51.6
2017-08-16T07:46:05.888Z,51.6
2017-08-16T07:48:05.666Z,51.5
2017-08-16T07:50:05.879Z,51.7
2017-08-16T07:52:08.226Z,51.6
2017-08-16T07:54:05.978Z,51.6
2017-08-16T07:56:05.540Z,51.4
2017-08-16T07:58:05.276Z,51.3
2017-08-16T08:00:06.341Z,51.3
2017-08-16T08:02:07.581Z,51.3
2017-08-16T08:04:05.414Z,51.2
2017-08-16T08:06:05.148Z,51.3
2017-08-16T08:08:05.850Z,51.1
2017-08-16T08:10:05.538Z,51.1
2017-08-16T08:12:05.655Z,51
2017-08-16T08:14:05.388Z,51
2017-08-16T08:16:05.147Z,51
2017-08-16T08:18:12.642Z,50.9
2017-08-16T08:20:05.339Z,50.9
2017-08-16T08:22:05.173Z,50.9
2017-08-16T08:24:05.423Z,51
2017-08-16T08:26:05.189Z,50.9
2017-08-16T08:28:06.095Z,50.9
2017-08-16T08:30:05.881Z,50.9
2017-08-16T08:32:05.607Z,50.8
2017-08-16T08:34:10.443Z,50.9
2017-08-16T08:36:07.994Z,50.7
2017-08-16T08:38:05.731Z,50.9
2017-08-16T08:40:10.494Z,50.9
2017-08-16T08:42:08.069Z,50.9
2017-08-16T08:44:11.086Z,50.9
2017-08-16T08:46:05.779Z,50.7
2017-08-16T08:48:08.053Z,50.7
2017-08-16T08:50:06.768Z,50.7
2017-08-16T08:52:08.044Z,51
2017-08-16T08:54:05.335Z,51
2017-08-16T08:56:05.235Z,50.9
2017-08-16T08:58:05.442Z,50.9
2017-08-16T09:00:05.321Z,50.9
2017-08-16T09:02:05.041Z,50.9
2017-08-16T09:04:10.832Z,50.8
2017-08-16T09:06:05.570Z,50.8
2017-08-16T09:08:05.393Z,50.9
2017-08-16T09:10:05.132Z,50.9
2017-08-16T09:12:10.412Z,50.9
2017-08-16T09:14:07.620Z,50.7
2017-08-16T09:16:05.858Z,50.8
2017-08-16T09:18:08.045Z,50.9
2017-08-16T09:20:08.236Z,50.9
2017-08-16T09:22:12.277Z,51
2017-08-16T09:24:10.444Z,50.8
2017-08-16T09:26:05.659Z,51
2017-08-16T09:28:05.789Z,51
2017-08-16T09:30:05.905Z,51
2017-08-16T09:32:05.946Z,50.9
2017-08-16T09:34:07.586Z,51
2017-08-16T09:36:09.195Z,50.9
2017-08-16T09:38:05.966Z,50.9
2017-08-16T09:40:08.468Z,51
2017-08-16T09:42:07.179Z,51
2017-08-16T09:44:10.975Z,50.9
2017-08-16T09:46:05.694Z,51
2017-08-16T09:48:05.886Z,50.9
2017-08-16T09:50:10.729Z,50.9
2017-08-16T09:52:08.000Z,51.1
2017-08-16T09:54:06.011Z,51.1
2017-08-16T09:56:05.757Z,50.9
2017-08-16T09:58:05.485Z,50.9
2017-08-16T10:00:10.459Z,50.8
2017-08-16T10:02:07.747Z,51
2017-08-16T10:04:05.469Z,51
2017-08-16T10:06:05.371Z,50.9
2017-08-16T10:08:05.099Z,50.9
2017-08-16T10:10:05.775Z,50.9
2017-08-16T10:12:12.979Z,50.7
2017-08-16T10:14:05.689Z,50.7
2017-08-16T10:16:13.060Z,50.6
2017-08-16T10:18:06.081Z,50.7
2017-08-16T10:20:07.995Z,50.5
2017-08-16T10:22:06.866Z,50.5
2017-08-16T10:24:10.592Z,50.6
2017-08-16T10:26:05.289Z,50.6
2017-08-16T10:28:06.024Z,50.7
2017-08-16T10:30:12.784Z,50.5
2017-08-16T10:32:05.558Z,50.5
2017-08-16T10:34:05.301Z,50.6
2017-08-16T10:36:08.234Z,50.5
2017-08-16T10:38:11.060Z,50.4
2017-08-16T10:40:05.807Z,50.4
2017-08-16T10:42:05.735Z,50.7
2017-08-16T10:44:06.007Z,50.7
2017-08-16T10:46:13.332Z,50.4
2017-08-16T10:48:07.749Z,50.4
2017-08-16T10:50:08.002Z,50.4
2017-08-16T10:52:10.795Z,50.4
2017-08-16T10:54:05.640Z,50.4
2017-08-16T10:56:05.417Z,50.6
2017-08-16T10:58:05.112Z,50.6
2017-08-16T11:00:06.011Z,50.6
2017-08-16T11:02:05.235Z,50.5
2017-08-16T11:04:05.638Z,50.4
2017-08-16T11:06:08.557Z,50.6
2017-08-16T11:08:05.284Z,50.4
2017-08-16T11:10:05.984Z,50.3
2017-08-16T11:12:06.066Z,50.3
2017-08-16T11:14:05.904Z,50.3
2017-08-16T11:16:05.125Z,50.4
2017-08-16T11:18:05.569Z,50.6
2017-08-16T11:20:08.336Z,50.4
2017-08-16T11:22:15.237Z,50.6
2017-08-16T11:24:06.097Z,50.6
2017-08-16T11:26:13.365Z,50.7
2017-08-16T11:28:07.888Z,51
2017-08-16T11:30:05.926Z,51
2017-08-16T11:32:05.672Z,51.3
2017-08-16T11:34:06.409Z,51.4
2017-08-16T11:36:06.139Z,51.6
2017-08-16T11:38:08.407Z,51.5
2017-08-16T11:40:07.812Z,51.6
2017-08-16T11:42:08.136Z,51.7
2017-08-16T11:44:05.865Z,51.7
2017-08-16T11:46:05.641Z,51.7
2017-08-16T11:48:08.431Z,51.7
2017-08-16T11:50:06.156Z,51.7
2017-08-16T11:52:08.404Z,51.7
2017-08-16T11:54:05.418Z,51.8
2017-08-16T11:56:05.287Z,51.8
2017-08-16T11:58:07.547Z,52
2017-08-16T12:00:05.475Z,52
2017-08-16T12:02:05.199Z,52
2017-08-16T12:04:13.495Z,51.9
2017-08-16T12:06:05.858Z,51.9
2017-08-16T12:08:05.541Z,51.9
2017-08-16T12:10:07.786Z,51.8
2017-08-16T12:12:05.104Z,51.8
2017-08-16T12:14:06.337Z,51.9
2017-08-16T12:20:05.680Z,51.7
2017-08-16T12:22:07.976Z,51.9
2017-08-16T12:24:08.333Z,51.7
2017-08-16T12:26:07.818Z,51.7
2017-08-16T12:28:10.627Z,51.7
2017-08-16T12:30:05.340Z,51.6
2017-08-16T12:32:07.659Z,52.1
2017-08-16T12:34:07.967Z,52.1
2017-08-16T12:36:08.264Z,52.2
2017-08-16T12:38:06.331Z,52.1
2017-08-16T12:40:05.131Z,51.9
2017-08-16T12:42:08.488Z,51.6
2017-08-16T12:44:07.923Z,51.9
2017-08-16T12:46:05.622Z,51.7
2017-08-16T12:48:05.329Z,51.7
2017-08-16T12:50:05.184Z,51.7
2017-08-16T12:52:05.967Z,51.7
2017-08-16T12:54:13.258Z,51.6
2017-08-16T12:56:06.135Z,51.6
2017-08-16T12:58:05.615Z,51.7
2017-08-16T13:00:05.366Z,52
2017-08-16T13:02:05.381Z,51.9
2017-08-16T13:04:05.129Z,51.5
2017-08-16T13:06:05.931Z,51.6
2017-08-16T13:08:05.997Z,51.6
2017-08-16T13:10:06.781Z,51.7
2017-08-16T13:12:05.514Z,51.7
2017-08-16T13:14:07.846Z,51.9
2017-08-16T13:16:08.297Z,51.8
2017-08-16T13:18:06.222Z,51.8
2017-08-16T13:20:06.118Z,51.9
2017-08-16T13:22:06.111Z,51.9
2017-08-16T13:24:05.819Z,51.9
2017-08-16T13:26:07.079Z,51.8
2017-08-16T13:28:05.816Z,52
2017-08-16T13:30:08.396Z,51.5
2017-08-16T13:32:05.756Z,51.5
2017-08-16T13:34:05.632Z,51.8
2017-08-16T13:36:05.358Z,51.8
2017-08-16T13:38:05.402Z,51.7
2017-08-16T13:40:05.228Z,51.7
2017-08-16T13:42:05.189Z,51.8
2017-08-16T13:44:05.902Z,51.8
2017-08-16T13:46:05.102Z,51.8
2017-08-16T13:48:05.801Z,51.8
2017-08-16T13:50:05.593Z,52
2017-08-16T13:52:07.834Z,52.1
2017-08-16T13:54:05.048Z,52.1
2017-08-16T13:56:05.415Z,52
2017-08-16T13:58:06.135Z,52
2017-08-16T14:00:05.847Z,52
2017-08-16T14:02:05.624Z,52
2017-08-16T14:04:05.354Z,52
2017-08-16T14:06:05.076Z,52
2017-08-16T14:08:06.003Z,52.1
2017-08-16T14:10:05.709Z,52.2
2017-08-16T14:12:05.419Z,52.1
2017-08-16T14:14:05.247Z,52.2
2017-08-16T14:16:08.524Z,52.2
2017-08-16T14:18:05.479Z,52.2
2017-08-16T14:20:16.012Z,52.2
2017-08-16T14:22:05.713Z,52.2
2017-08-16T14:24:05.416Z,52.2
2017-08-16T14:26:05.182Z,52.2
2017-08-16T14:28:05.937Z,52.2
2017-08-16T14:30:05.666Z,52.2
2017-08-16T14:32:10.413Z,52.2
2017-08-16T14:34:05.137Z,52.3
2017-08-16T14:36:07.905Z,52.2
2017-08-16T14:38:05.886Z,52.2
2017-08-16T14:40:05.148Z,52.2
2017-08-16T14:42:06.379Z,52.2
2017-08-16T14:44:05.854Z,52.2
2017-08-16T14:46:09.550Z,52.3
2017-08-16T14:48:07.313Z,52.2
2017-08-16T14:50:08.396Z,52.2
2017-08-16T14:52:05.176Z,52.2
2017-08-16T14:54:08.808Z,52.3
2017-08-16T14:56:07.429Z,52.3
2017-08-16T14:58:05.841Z,52.2
2017-08-16T15:00:06.811Z,52.2
2017-08-16T15:02:08.238Z,52.4
2017-08-16T15:04:05.983Z,52.2
2017-08-16T15:06:08.211Z,52.4
2017-08-16T15:08:06.024Z,52.4
2017-08-16T15:10:05.227Z,52.4
2017-08-16T15:12:11.060Z,52.4
2017-08-16T15:14:08.370Z,52.3
2017-08-16T15:16:05.049Z,52.3
2017-08-16T15:18:05.510Z,52.3
2017-08-16T15:20:08.386Z,52.3
2017-08-16T15:22:06.306Z,52.3
2017-08-16T15:24:06.053Z,52.2
2017-08-16T15:26:06.173Z,52.3
2017-08-16T15:28:05.926Z,52.3
2017-08-16T15:30:05.630Z,52.3
2017-08-16T15:32:10.378Z,52.4
2017-08-16T15:34:07.611Z,52.4
2017-08-16T15:36:05.304Z,52.4
2017-08-16T15:38:07.258Z,52.2
2017-08-16T15:40:08.485Z,52.2
2017-08-16T15:42:05.691Z,52.2
2017-08-16T15:44:07.955Z,52.3
2017-08-16T15:46:05.673Z,52.3
2017-08-16T15:48:05.620Z,52.4
2017-08-16T15:50:05.563Z,52.4
2017-08-16T15:52:06.345Z,52.4
2017-08-16T15:54:05.600Z,52.3
2017-08-16T15:56:05.523Z,52.3
2017-08-16T15:58:05.429Z,52.3
2017-08-16T16:00:05.162Z,52.3
2017-08-16T16:02:05.589Z,52.3
2017-08-16T16:04:05.290Z,52.4
2017-08-16T16:06:07.034Z,52.4
2017-08-16T16:08:05.883Z,52.4
2017-08-16T16:10:05.613Z,52.4
2017-08-16T16:12:05.296Z,52.5
2017-08-16T16:14:08.165Z,52.4
2017-08-16T16:16:05.402Z,52.4
2017-08-16T16:18:08.589Z,52.4
2017-08-16T16:20:05.596Z,52.4
2017-08-16T16:22:10.481Z,52.4
2017-08-16T16:24:05.280Z,52.4
2017-08-16T16:26:06.176Z,52.4
2017-08-16T16:28:05.921Z,52.3
2017-08-16T16:30:05.614Z,51.5
2017-08-16T16:32:07.988Z,51
2017-08-16T16:34:05.220Z,51
2017-08-16T16:36:05.886Z,50.5
2017-08-16T16:38:08.103Z,50.3
2017-08-16T16:40:07.011Z,50.2
2017-08-16T16:42:05.766Z,49.9
2017-08-16T16:44:10.655Z,49.9
2017-08-16T16:46:43.882Z,49.8
2017-08-16T16:48:12.837Z,49.8
2017-08-16T16:50:09.606Z,49.9
2017-08-16T16:52:08.145Z,49.8
2017-08-16T16:54:05.940Z,49.6
2017-08-16T16:56:10.446Z,49.5
2017-08-16T16:58:05.883Z,49.6
2017-08-16T17:00:05.602Z,49.5
2017-08-16T17:02:07.897Z,49.5
2017-08-16T17:04:05.121Z,49.6
2017-08-16T17:06:05.818Z,49.9
2017-08-16T17:08:05.589Z,49.6
2017-08-16T17:10:05.406Z,49.4
2017-08-16T17:12:05.092Z,49.2
2017-08-16T17:14:05.984Z,49.2
2017-08-16T17:16:05.849Z,49.5
2017-08-16T17:18:05.755Z,49.4
2017-08-16T17:20:05.091Z,49.8
2017-08-16T17:22:06.823Z,49.6
2017-08-16T17:24:10.632Z,50.1
2017-08-16T17:26:06.691Z,49.9
2017-08-16T17:28:06.056Z,50.1
2017-08-16T17:30:05.140Z,50.2
2017-08-16T17:32:11.329Z,50.3
2017-08-16T17:34:05.146Z,50.3
2017-08-16T17:36:08.390Z,50.1
2017-08-16T17:38:12.950Z,50.3
2017-08-16T17:40:05.728Z,50.3
2017-08-16T17:42:05.554Z,50.3
2017-08-16T17:44:05.310Z,50.5
2017-08-16T17:46:08.877Z,50.4
2017-08-16T17:48:05.679Z,50.4
2017-08-16T17:50:08.209Z,50.5
2017-08-16T17:52:05.932Z,50.5
2017-08-16T17:54:08.167Z,50.6
2017-08-16T17:56:08.177Z,50.4
2017-08-16T17:58:05.866Z,50.5
2017-08-16T18:00:05.305Z,50.5
2017-08-16T18:02:08.753Z,50.7
2017-08-16T18:04:05.839Z,50.7
2017-08-16T18:06:05.034Z,50.9
2017-08-16T18:08:05.986Z,50.7
2017-08-16T18:10:10.750Z,50.3
2017-08-16T18:12:05.510Z,50.3
2017-08-16T18:14:10.793Z,50.1
2017-08-16T18:16:05.543Z,50
2017-08-16T18:18:05.778Z,50.2
2017-08-16T18:20:05.185Z,50.1
2017-08-16T18:22:05.954Z,50
2017-08-16T18:24:05.677Z,50
2017-08-16T18:26:07.605Z,50.3
2017-08-16T18:28:11.095Z,50.3
2017-08-16T18:30:05.771Z,50.3
2017-08-16T18:32:10.654Z,50.6
2017-08-16T18:34:05.966Z,50.5
2017-08-16T18:36:05.427Z,50.8
2017-08-16T18:38:05.349Z,50.7
2017-08-16T18:40:05.290Z,50.8
2017-08-16T18:42:06.517Z,50.8
2017-08-16T18:44:05.816Z,50.9
2017-08-16T18:46:10.374Z,51
2017-08-16T18:48:05.394Z,51
2017-08-16T18:50:05.793Z,51
2017-08-16T18:52:05.902Z,51.1
2017-08-16T18:54:08.233Z,51.2
2017-08-16T18:56:05.240Z,51.2
2017-08-16T18:58:07.282Z,51.2
2017-08-16T19:00:05.998Z,51.3
2017-08-16T19:02:08.792Z,51.2
2017-08-16T19:04:06.977Z,51.3
2017-08-16T19:06:05.834Z,51.4
2017-08-16T19:08:06.052Z,51.3
2017-08-16T19:10:10.568Z,51.2
2017-08-16T19:12:05.300Z,51.2
2017-08-16T19:14:06.045Z,51.2
2017-08-16T19:16:05.741Z,51.4
2017-08-16T19:18:05.664Z,51.3
2017-08-16T19:20:05.337Z,51.3
2017-08-16T19:22:07.616Z,51.2
2017-08-16T19:24:05.829Z,51.2
2017-08-16T19:26:08.173Z,51.1
2017-08-16T19:28:05.961Z,51.1
2017-08-16T19:30:08.460Z,51
2017-08-16T19:32:12.888Z,50.9
2017-08-16T19:34:13.186Z,50.8
2017-08-16T19:36:05.457Z,50.8
2017-08-16T19:38:05.467Z,51.1
2017-08-16T19:40:07.697Z,51.3
2017-08-16T19:42:05.438Z,51.3
2017-08-16T19:44:05.268Z,51.3
2017-08-16T19:46:05.578Z,51.3
2017-08-16T19:48:05.279Z,51.3
2017-08-16T19:50:05.248Z,51.3
2017-08-16T19:52:21.139Z,51.2
2017-08-16T19:54:06.150Z,51.2
2017-08-16T19:56:05.918Z,51.1
2017-08-16T19:58:08.122Z,51.1
2017-08-16T20:00:05.836Z,51.1
2017-08-16T20:02:05.835Z,51.1
2017-08-16T20:04:05.818Z,51.1
2017-08-16T20:06:05.828Z,50.9
2017-08-16T20:08:06.170Z,51
2017-08-16T20:10:06.221Z,51
2017-08-16T20:12:10.576Z,51.1
2017-08-16T20:14:05.468Z,51
2017-08-16T20:16:05.247Z,51.1
2017-08-16T20:18:05.248Z,51.2
2017-08-16T20:20:08.919Z,51.4
2017-08-16T20:22:05.734Z,51.1
2017-08-16T20:24:05.505Z,51.2
2017-08-16T20:26:06.068Z,51.3
2017-08-16T20:28:06.004Z,51.5
2017-08-16T20:30:05.371Z,51.5
2017-08-16T20:32:10.478Z,51.5
2017-08-16T20:34:10.767Z,51.5
2017-08-16T20:36:08.105Z,51.6
2017-08-16T20:38:08.494Z,51.6
2017-08-16T20:40:05.098Z,51.6
2017-08-16T20:42:05.893Z,51.8
2017-08-16T20:44:05.621Z,51.8
2017-08-16T20:46:05.377Z,51.9
2017-08-16T20:48:05.064Z,52.1
2017-08-16T20:50:06.858Z,51.9
2017-08-16T20:52:05.799Z,51.9
2017-08-16T20:54:08.297Z,52
2017-08-16T20:56:13.677Z,52.2
2017-08-16T20:58:06.028Z,52
2017-08-16T21:00:15.890Z,52.1
2017-08-16T21:02:05.703Z,52.1
2017-08-16T21:04:05.468Z,52.1
2017-08-16T21:06:05.188Z,52.4
2017-08-16T21:08:06.165Z,52.3
2017-08-16T21:10:11.000Z,52.5
2017-08-16T21:12:06.898Z,52.5
2017-08-16T21:14:08.677Z,52.6
2017-08-16T21:16:07.999Z,52.5
2017-08-16T21:18:08.480Z,52.3
2017-08-16T21:20:13.370Z,52.3
2017-08-16T21:22:08.545Z,52.3
2017-08-16T21:24:05.277Z,52.1
2017-08-16T21:26:05.658Z,52.3
2017-08-16T21:28:05.387Z,52.1
2017-08-16T21:30:06.527Z,52.1
2017-08-16T21:32:05.463Z,52.1
2017-08-16T21:34:05.171Z,51.9
2017-08-16T21:36:05.926Z,51.9
2017-08-16T21:38:15.944Z,52
2017-08-16T21:40:05.327Z,52
2017-08-16T21:42:05.543Z,52.3
2017-08-16T21:44:05.892Z,52.1
2017-08-16T21:46:05.779Z,52.1
2017-08-16T21:48:05.125Z,52.3
2017-08-16T21:50:06.048Z,52.1
2017-08-16T21:52:08.370Z,51.9
2017-08-16T21:54:05.081Z,51.9
2017-08-16T21:56:08.372Z,52.2
2017-08-16T21:58:05.632Z,52.1
2017-08-16T22:00:05.857Z,52.4
2017-08-16T22:02:10.773Z,52.5
2017-08-16T22:04:05.567Z,52.3
2017-08-16T22:06:07.807Z,52.6
2017-08-16T22:08:08.259Z,52.6
2017-08-16T22:10:11.037Z,52.6
2017-08-16T22:12:05.750Z,52.6
2017-08-16T22:14:05.630Z,52.6
2017-08-16T22:16:05.380Z,52.6
2017-08-16T22:18:07.931Z,52.6
2017-08-16T22:20:05.691Z,52.4
2017-08-16T22:22:05.423Z,52.6
2017-08-16T22:24:05.168Z,52.7
2017-08-16T22:26:06.053Z,52.5
2017-08-16T22:28:08.290Z,52.7
2017-08-16T22:30:08.537Z,52.5
2017-08-16T22:32:05.432Z,52.5
2017-08-16T22:34:05.457Z,52.8
2017-08-16T22:36:10.406Z,52.5
2017-08-16T22:38:06.232Z,52.5
2017-08-16T22:40:05.013Z,52.5
2017-08-16T22:42:05.934Z,52.5
2017-08-16T22:44:06.215Z,52.6
2017-08-16T22:46:06.056Z,52.7
2017-08-16T22:48:08.379Z,52.7
2017-08-16T22:50:05.401Z,52.7
2017-08-16T22:52:05.702Z,52.8
2017-08-16T22:54:05.570Z,52.6
2017-08-16T22:56:13.139Z,52.8
2017-08-16T22:58:10.926Z,52.8
2017-08-16T23:00:05.141Z,52.8
2017-08-16T23:02:05.881Z,52.8
2017-08-16T23:04:05.593Z,52.9
2017-08-16T23:06:05.376Z,53
2017-08-16T23:08:05.201Z,52.7
2017-08-16T23:10:05.898Z,53
2017-08-16T23:12:05.568Z,52.9
2017-08-16T23:14:11.793Z,53
2017-08-16T23:16:06.043Z,53
2017-08-16T23:18:05.509Z,52.8
2017-08-16T23:20:05.897Z,53
2017-08-16T23:22:05.423Z,52.8
2017-08-16T23:24:05.313Z,53.1
2017-08-16T23:26:10.082Z,53.1
2017-08-16T23:28:10.909Z,52.8
2017-08-16T23:30:05.166Z,52.9
2017-08-16T23:32:05.979Z,52.9
2017-08-16T23:34:05.757Z,53
2017-08-16T23:36:07.994Z,53.1
2017-08-16T23:38:06.247Z,53.1
2017-08-16T23:40:05.518Z,53.5
2017-08-16T23:42:05.214Z,53.4
2017-08-16T23:44:13.553Z,53.5
2017-08-16T23:46:05.304Z,53.4
2017-08-16T23:48:04.987Z,53.5
2017-08-16T23:50:06.242Z,53.3
2017-08-16T23:52:05.997Z,53.2
2017-08-16T23:54:06.049Z,53.3
2017-08-16T23:56:06.233Z,53.2
2017-08-16T23:58:05.955Z,53.1
